Rexford, Kansas
Current Conditions -  °F | °C
As of 8:55 AM on Sunday 21 Dec 2014 (Local Time) from KCBK Reporting Station
Haze Haze  
Wind Chill: 23°   Ceiling: Unl
Heat Index: 30°   Visibility: 5mi
Dew Point: 30°   Wind: 8mph
Humidity: 100%   Direction: 220°SW
Pressure: 29.76"   Gusts: NA
Location:  39.47°N, 100.74°W
Report Text: KCBK 211455Z AUTO 22007KT 5SM BR CLR M01/M01 A2976 RMK AO2
Loading
Personal Weather Stations






























Interactive Weather Map New forecast layout! Learn more

10-Day Weather Forecast

Advertisements
Track Severe Weather on mobile